Otter Creek, Florida
Current Conditions -  °F | °C
As of 4:15 PM on Tuesday 27 Jan 2015 (Local Time) from KCGC Reporting Station
Clear Clear  
Wind Chill: 64°   Ceiling: Unl
Heat Index: 64°   Visibility: 10mi
Dew Point: 50°   Wind: 16mph
Humidity: 59%   Direction: 260°W
Pressure: 29.95"   Gusts: 22mph
Location:  29.32°N, 82.77°W
Report Text: KCGC 272115Z AUTO 26014G19KT 10SM CLR 18/10 A2995 RMK AO2
Loading
Personal Weather Stations






























Interactive Weather Map New forecast layout! Learn more

10-Day Weather Forecast

Advertisements
Track Severe Weather on mobile